createdAt,value
2023-06-08T00:01:48.833Z,20.49
2023-06-08T00:04:14.997Z,20.49
2023-06-08T00:06:41.188Z,20.48
2023-06-08T00:09:07.345Z,20.48
2023-06-08T00:11:33.513Z,20.48
2023-06-08T00:13:59.685Z,20.48
2023-06-08T00:16:25.879Z,20.48
2023-06-08T00:18:52.052Z,20.47
2023-06-08T00:21:18.223Z,20.48
2023-06-08T00:23:44.409Z,20.48
2023-06-08T00:26:10.649Z,20.48
2023-06-08T00:28:36.861Z,20.48
2023-06-08T00:31:03.013Z,20.48
2023-06-08T00:33:29.148Z,20.48
2023-06-08T00:35:55.315Z,20.46
2023-06-08T00:38:21.728Z,20.48
2023-06-08T00:40:47.908Z,20.46
2023-06-08T00:43:14.097Z,20.48
2023-06-08T00:45:40.285Z,20.47
2023-06-08T00:48:06.498Z,20.47
2023-06-08T00:50:32.687Z,20.46
2023-06-08T00:52:58.878Z,20.47
2023-06-08T00:55:25.007Z,20.46
2023-06-08T00:57:51.211Z,20.47
2023-06-08T01:00:17.376Z,20.46
2023-06-08T01:02:43.554Z,20.47
2023-06-08T01:05:09.760Z,20.46
2023-06-08T01:07:35.913Z,20.47
2023-06-08T01:10:02.044Z,20.47
2023-06-08T01:12:28.213Z,20.45
2023-06-08T01:14:54.356Z,20.45
2023-06-08T01:17:21.762Z,20.45
2023-06-08T01:19:48.089Z,20.46
2023-06-08T01:22:14.269Z,20.45
2023-06-08T01:24:40.417Z,20.45
2023-06-08T01:27:06.581Z,20.45
2023-06-08T01:29:32.726Z,20.45
2023-06-08T01:31:58.888Z,20.43
2023-06-08T01:34:25.040Z,20.42
2023-06-08T01:36:51.187Z,20.41
2023-06-08T01:39:17.371Z,20.42
2023-06-08T01:41:43.664Z,20.43
2023-06-08T01:44:09.893Z,20.42
2023-06-08T01:46:36.120Z,20.41
2023-06-08T01:49:02.297Z,20.42
2023-06-08T01:51:28.442Z,20.42
2023-06-08T01:53:54.612Z,20.40
2023-06-08T01:56:20.912Z,20.41
2023-06-08T01:58:47.093Z,20.40
2023-06-08T02:01:13.301Z,20.40
2023-06-08T02:03:39.464Z,20.41
2023-06-08T02:06:05.611Z,20.41
2023-06-08T02:08:31.748Z,20.40
2023-06-08T02:10:57.911Z,20.39
2023-06-08T02:13:24.047Z,20.40
2023-06-08T02:15:50.194Z,20.39
2023-06-08T02:18:16.390Z,20.39
2023-06-08T02:20:42.540Z,20.39
2023-06-08T02:23:08.701Z,20.39
2023-06-08T02:25:34.863Z,20.39
2023-06-08T02:28:01.040Z,20.38
2023-06-08T02:30:27.247Z,20.38
2023-06-08T02:32:53.509Z,20.37
2023-06-08T02:35:19.769Z,20.37
2023-06-08T02:37:45.932Z,20.36
2023-06-08T02:40:12.073Z,20.35
2023-06-08T02:42:38.253Z,20.36
2023-06-08T02:45:04.427Z,20.37
2023-06-08T02:47:30.655Z,20.37
2023-06-08T02:49:56.811Z,20.36
2023-06-08T02:52:22.948Z,20.36
2023-06-08T02:54:49.103Z,20.36
2023-06-08T02:57:15.272Z,20.36
2023-06-08T02:59:41.433Z,20.35
2023-06-08T03:02:07.676Z,20.34
2023-06-08T03:04:33.869Z,20.34
2023-06-08T03:07:00.038Z,20.34
2023-06-08T03:09:26.204Z,20.33
2023-06-08T03:11:52.420Z,20.34
2023-06-08T03:14:18.630Z,20.33
2023-06-08T03:16:44.807Z,20.32
2023-06-08T03:19:10.969Z,20.32
2023-06-08T03:21:37.118Z,20.33
2023-06-08T03:24:03.433Z,20.32
2023-06-08T03:26:29.580Z,20.32
2023-06-08T03:28:55.749Z,20.31
2023-06-08T03:31:21.939Z,20.31
2023-06-08T03:33:48.156Z,20.31
2023-06-08T03:36:14.304Z,20.31
2023-06-08T03:38:40.486Z,20.31
2023-06-08T03:41:06.626Z,20.30
2023-06-08T03:43:32.777Z,20.30
2023-06-08T03:45:58.989Z,20.31
2023-06-08T03:48:25.194Z,20.31
2023-06-08T03:50:51.548Z,20.30
2023-06-08T03:53:17.798Z,20.30
2023-06-08T03:55:43.986Z,20.30
2023-06-08T03:58:10.125Z,20.29
2023-06-08T04:00:36.302Z,20.28
2023-06-08T04:03:02.653Z,20.27
2023-06-08T04:05:28.925Z,20.28
2023-06-08T04:07:55.086Z,20.27
2023-06-08T04:10:21.224Z,20.28
2023-06-08T04:12:47.365Z,20.27
2023-06-08T04:15:13.548Z,20.26
2023-06-08T04:17:39.697Z,20.27
2023-06-08T04:20:05.879Z,20.27
2023-06-08T04:22:32.080Z,20.26
2023-06-08T04:24:58.219Z,20.26
2023-06-08T04:27:24.427Z,20.26
2023-06-08T04:29:50.729Z,20.26
2023-06-08T04:32:16.912Z,20.24
2023-06-08T04:34:43.149Z,20.24
2023-06-08T04:37:09.485Z,20.25
2023-06-08T04:39:37.461Z,20.24
2023-06-08T04:42:05.325Z,20.24
2023-06-08T04:44:31.667Z,20.24
2023-06-08T04:46:57.850Z,20.22
2023-06-08T04:49:24.023Z,20.23
2023-06-08T04:51:50.229Z,20.23
2023-06-08T04:54:18.573Z,20.24
2023-06-08T04:56:44.767Z,20.23
2023-06-08T04:59:10.947Z,20.22
2023-06-08T05:01:37.284Z,20.22
2023-06-08T05:04:03.582Z,20.22
2023-06-08T05:06:29.964Z,20.22
2023-06-08T05:08:56.121Z,20.21
2023-06-08T05:11:22.263Z,20.22
2023-06-08T05:13:48.431Z,20.21
2023-06-08T05:16:14.603Z,20.20
2023-06-08T05:18:40.748Z,20.20
2023-06-08T05:21:06.955Z,20.20
2023-06-08T05:23:33.130Z,20.20
2023-06-08T05:25:59.305Z,20.20
2023-06-08T05:28:25.470Z,20.20
2023-06-08T05:30:51.681Z,20.20
2023-06-08T05:33:17.870Z,20.20
2023-06-08T05:35:44.035Z,20.19
2023-06-08T05:38:10.163Z,20.19
2023-06-08T05:40:36.304Z,20.18
2023-06-08T05:43:02.488Z,20.19
2023-06-08T05:45:28.677Z,20.18
2023-06-08T05:47:54.903Z,20.18
2023-06-08T05:50:21.643Z,20.17
2023-06-08T05:52:47.835Z,20.17
2023-06-08T05:55:14.036Z,20.17
2023-06-08T05:57:40.271Z,20.17
2023-06-08T06:00:06.932Z,20.19
2023-06-08T06:02:33.418Z,20.19
2023-06-08T06:04:59.743Z,20.18
2023-06-08T06:07:25.970Z,20.18
2023-06-08T06:09:52.101Z,20.19
2023-06-08T06:12:18.258Z,20.18
2023-06-08T06:14:44.411Z,20.19
2023-06-08T06:17:10.570Z,20.19
2023-06-08T06:19:37.035Z,20.19
2023-06-08T06:22:03.181Z,20.17
2023-06-08T06:24:29.314Z,20.19
2023-06-08T06:26:55.479Z,20.18
2023-06-08T06:29:21.642Z,20.19
2023-06-08T06:31:49.838Z,20.18
2023-06-08T06:34:16.999Z,20.19
2023-06-08T06:36:43.163Z,20.18
2023-06-08T06:39:09.309Z,20.19
2023-06-08T06:41:35.489Z,20.18
2023-06-08T06:44:01.633Z,20.19
2023-06-08T06:46:27.832Z,20.17
2023-06-08T06:48:54.040Z,20.17
2023-06-08T06:51:20.193Z,20.18
2023-06-08T06:53:46.385Z,20.18
2023-06-08T06:56:12.579Z,20.19
2023-06-08T06:58:38.758Z,20.19
2023-06-08T07:01:05.037Z,20.18
2023-06-08T07:03:31.373Z,20.19
2023-06-08T07:05:57.554Z,20.18
2023-06-08T07:08:23.714Z,20.18
2023-06-08T07:10:49.877Z,20.19
2023-06-08T07:13:16.064Z,20.19
2023-06-08T07:15:42.269Z,20.20
2023-06-08T07:18:08.493Z,20.19
2023-06-08T07:20:34.659Z,20.19
2023-06-08T07:23:09.357Z,20.20
2023-06-08T07:26:14.348Z,20.20
2023-06-08T07:28:30.379Z,20.21
2023-06-08T07:30:56.583Z,20.21
2023-06-08T07:33:22.803Z,20.21
2023-06-08T07:35:48.957Z,20.22
2023-06-08T07:38:15.153Z,20.23
2023-06-08T07:40:41.324Z,20.22
2023-06-08T07:43:07.528Z,20.23
2023-06-08T07:45:33.739Z,20.25
2023-06-08T07:47:59.943Z,20.25
2023-06-08T07:50:26.161Z,20.24
2023-06-08T07:52:52.320Z,20.24
2023-06-08T07:55:18.507Z,20.25
2023-06-08T07:57:44.667Z,20.25
2023-06-08T08:00:11.294Z,20.27
2023-06-08T08:02:37.549Z,20.25
2023-06-08T08:05:03.757Z,20.27
2023-06-08T08:07:29.932Z,20.27
2023-06-08T08:09:56.117Z,20.28
2023-06-08T08:12:22.253Z,20.28
2023-06-08T08:14:48.447Z,20.28
2023-06-08T08:17:14.654Z,20.29
2023-06-08T08:19:40.856Z,20.29
2023-06-08T08:22:07.025Z,20.30
2023-06-08T08:24:33.165Z,20.29
2023-06-08T08:26:59.301Z,20.30
2023-06-08T08:29:25.460Z,20.29
2023-06-08T08:31:51.601Z,20.31
2023-06-08T08:34:17.742Z,20.31
2023-06-08T08:36:43.900Z,20.32
2023-06-08T08:39:10.059Z,20.34
2023-06-08T08:41:36.184Z,20.33
2023-06-08T08:44:02.427Z,20.34
2023-06-08T08:46:28.710Z,20.34
2023-06-08T08:48:54.984Z,20.34
2023-06-08T08:51:21.159Z,20.35
2023-06-08T08:53:47.290Z,20.35
2023-06-08T08:56:13.458Z,20.36
2023-06-08T08:58:39.669Z,20.36
2023-06-08T09:01:06.182Z,20.38
2023-06-08T09:03:32.476Z,20.38
2023-06-08T09:05:58.706Z,20.39
2023-06-08T09:08:24.878Z,20.39
2023-06-08T09:10:51.016Z,20.38
2023-06-08T09:13:17.173Z,20.39
2023-06-08T09:15:43.323Z,20.41
2023-06-08T09:18:09.721Z,20.41
2023-06-08T09:20:36.020Z,20.41
2023-06-08T09:23:02.175Z,20.41
2023-06-08T09:25:28.757Z,20.42
2023-06-08T09:27:54.937Z,20.44
2023-06-08T09:30:21.325Z,20.43
2023-06-08T09:32:47.550Z,20.45
2023-06-08T09:35:13.769Z,20.46
2023-06-08T09:37:39.904Z,20.46
2023-06-08T09:40:06.557Z,20.46
2023-06-08T09:42:33.038Z,20.48
2023-06-08T09:44:59.195Z,20.48
2023-06-08T09:47:25.371Z,20.49
2023-06-08T09:49:51.543Z,20.49
2023-06-08T09:52:17.733Z,20.49
2023-06-08T09:54:43.892Z,20.50
2023-06-08T09:57:10.086Z,20.51
2023-06-08T09:59:36.251Z,20.51
2023-06-08T10:02:02.465Z,20.51
2023-06-08T10:04:28.829Z,20.52
2023-06-08T10:06:55.058Z,20.54
2023-06-08T10:09:21.208Z,20.54
2023-06-08T10:11:47.471Z,20.54
2023-06-08T10:14:13.627Z,20.55
2023-06-08T10:16:39.819Z,20.56
2023-06-08T10:19:06.001Z,20.55
2023-06-08T10:21:32.259Z,20.57
2023-06-08T10:24:00.277Z,20.57
2023-06-08T10:26:26.490Z,20.59
2023-06-08T10:28:52.700Z,20.58
2023-06-08T10:31:18.968Z,20.60
2023-06-08T10:33:45.181Z,20.60
2023-06-08T10:36:11.340Z,20.61
2023-06-08T10:38:37.521Z,20.61
2023-06-08T10:41:03.719Z,20.62
2023-06-08T10:43:48.169Z,20.63
2023-06-08T10:46:16.114Z,20.64
2023-06-08T10:48:42.314Z,20.63
2023-06-08T10:51:08.461Z,20.64
2023-06-08T10:53:34.631Z,20.65
2023-06-08T10:56:00.797Z,20.67
2023-06-08T10:58:27.079Z,20.67
2023-06-08T11:00:55.720Z,20.69
2023-06-08T11:03:23.215Z,20.69
2023-06-08T11:05:49.369Z,20.71
2023-06-08T11:08:15.612Z,20.71
2023-06-08T11:10:42.064Z,20.73
2023-06-08T11:13:08.335Z,20.74
2023-06-08T11:15:34.603Z,20.74
2023-06-08T11:18:00.893Z,20.72
2023-06-08T11:20:27.079Z,20.74
2023-06-08T11:22:53.276Z,20.74
2023-06-08T11:25:19.422Z,20.76
2023-06-08T11:27:45.580Z,20.76
2023-06-08T11:30:11.813Z,20.77
2023-06-08T11:32:38.067Z,20.77
2023-06-08T11:35:04.264Z,20.78
2023-06-08T11:37:30.474Z,20.78
2023-06-08T11:39:56.618Z,20.79
2023-06-08T11:42:22.763Z,20.82
2023-06-08T11:44:48.957Z,20.82
2023-06-08T11:47:15.113Z,20.82
2023-06-08T11:49:41.259Z,20.83
2023-06-08T11:52:07.422Z,20.84
2023-06-08T11:54:33.565Z,20.85
2023-06-08T11:56:59.746Z,20.85
2023-06-08T11:59:25.921Z,20.86
2023-06-08T12:01:52.100Z,20.87
2023-06-08T12:04:18.291Z,20.88
2023-06-08T12:06:44.544Z,20.89
2023-06-08T12:09:10.720Z,20.89
2023-06-08T12:11:36.865Z,20.90
2023-06-08T12:14:03.020Z,20.91
2023-06-08T12:16:29.236Z,20.92
2023-06-08T12:18:55.382Z,20.92
2023-06-08T12:21:21.590Z,20.92
2023-06-08T12:23:47.786Z,20.94
2023-06-08T12:26:13.991Z,20.93
2023-06-08T12:28:40.202Z,20.94
2023-06-08T12:31:06.548Z,20.94
2023-06-08T12:33:32.917Z,20.96
2023-06-08T12:35:59.204Z,20.96
2023-06-08T12:38:25.407Z,20.97
2023-06-08T12:40:51.559Z,20.98
2023-06-08T12:43:17.751Z,20.98
2023-06-08T12:45:43.954Z,21.00
2023-06-08T12:48:10.230Z,21.00
2023-06-08T12:50:36.513Z,21.01
2023-06-08T12:53:02.668Z,21.01
2023-06-08T12:55:28.839Z,21.02
2023-06-08T12:57:55.017Z,21.03
2023-06-08T13:00:21.155Z,21.04
2023-06-08T13:02:47.416Z,21.03
2023-06-08T13:05:13.629Z,21.05
2023-06-08T13:07:39.767Z,21.05
2023-06-08T13:12:52.298Z,21.06
2023-06-08T13:15:18.489Z,21.06
2023-06-08T13:17:44.756Z,21.06
2023-06-08T13:20:11.472Z,21.08
2023-06-08T13:22:38.045Z,21.09
2023-06-08T13:25:04.355Z,21.09
2023-06-08T13:27:30.553Z,21.10
2023-06-08T13:29:56.695Z,21.10
2023-06-08T13:32:22.886Z,21.10
2023-06-08T13:34:49.155Z,21.10
2023-06-08T13:37:15.307Z,21.11
2023-06-08T13:39:41.489Z,21.12
2023-06-08T13:42:07.660Z,21.12
2023-06-08T13:44:33.811Z,21.13
2023-06-08T13:47:00.324Z,21.13
2023-06-08T13:49:26.496Z,21.14
2023-06-08T13:51:39.385Z,21.06
2023-06-08T13:51:52.659Z,21.14
2023-06-08T13:54:18.802Z,21.15
2023-06-08T13:56:44.980Z,21.15
2023-06-08T13:59:11.132Z,21.15
2023-06-08T14:01:37.340Z,21.16
2023-06-08T14:04:03.711Z,21.16
2023-06-08T14:06:30.024Z,21.17
2023-06-08T14:08:56.171Z,21.17
2023-06-08T14:11:22.392Z,21.19
2023-06-08T14:13:48.534Z,21.19
2023-06-08T14:16:14.708Z,21.19
2023-06-08T14:18:40.897Z,21.19
2023-06-08T14:21:07.030Z,21.20
2023-06-08T14:23:33.212Z,21.20
2023-06-08T14:25:59.451Z,21.20
2023-06-08T14:28:25.596Z,21.21
2023-06-08T14:30:51.771Z,21.21
2023-06-08T14:33:17.949Z,21.21
2023-06-08T14:35:44.128Z,21.23
2023-06-08T14:38:10.283Z,21.24
2023-06-08T14:40:36.443Z,21.23
2023-06-08T14:43:02.591Z,21.22
2023-06-08T14:45:28.759Z,21.23
2023-06-08T14:47:54.997Z,21.25
2023-06-08T14:50:21.195Z,21.24
2023-06-08T14:52:47.342Z,21.26
2023-06-08T14:55:13.550Z,21.25
2023-06-08T14:57:39.773Z,21.25
2023-06-08T15:00:06.240Z,21.26
2023-06-08T15:02:32.758Z,21.27
2023-06-08T15:04:58.924Z,21.27
2023-06-08T15:07:25.072Z,21.27
2023-06-08T15:09:51.236Z,21.28
2023-06-08T15:12:17.383Z,21.29
2023-06-08T15:14:43.533Z,21.30
2023-06-08T15:17:09.731Z,21.31
2023-06-08T15:19:35.880Z,21.30
2023-06-08T15:22:02.053Z,21.30
2023-06-08T15:24:28.213Z,21.30
2023-06-08T15:26:54.362Z,21.32
2023-06-08T15:29:20.493Z,21.33
2023-06-08T15:31:46.704Z,21.33
2023-06-08T15:34:12.857Z,21.33
2023-06-08T15:36:39.028Z,21.33
2023-06-08T15:39:05.375Z,21.34
2023-06-08T15:41:31.552Z,21.34
2023-06-08T15:43:57.710Z,21.34
2023-06-08T15:46:23.897Z,21.35
2023-06-08T15:48:50.068Z,21.35
2023-06-08T15:51:16.211Z,21.35
2023-06-08T15:53:42.796Z,21.36
2023-06-08T15:56:09.718Z,21.36
2023-06-08T15:58:35.878Z,21.37
2023-06-08T16:01:02.040Z,21.38
2023-06-08T16:03:28.193Z,21.38
2023-06-08T16:05:54.321Z,21.38
2023-06-08T16:08:20.513Z,21.39
2023-06-08T16:10:46.680Z,21.39
2023-06-08T16:13:12.811Z,21.39
2023-06-08T16:15:39.126Z,21.40
2023-06-08T16:18:05.409Z,21.39
2023-06-08T16:20:31.578Z,21.41
2023-06-08T16:22:57.749Z,21.42
2023-06-08T16:25:23.899Z,21.41
2023-06-08T16:27:50.081Z,21.43
2023-06-08T16:30:16.241Z,21.43
2023-06-08T16:32:42.485Z,21.43
2023-06-08T16:35:08.622Z,21.43
2023-06-08T16:37:34.829Z,21.43
2023-06-08T16:40:01.012Z,21.44
2023-06-08T16:42:27.152Z,21.43
2023-06-08T16:44:53.322Z,21.44
2023-06-08T16:47:19.466Z,21.44
2023-06-08T16:49:45.628Z,21.45
2023-06-08T16:52:11.792Z,21.46
2023-06-08T16:54:37.957Z,21.46
2023-06-08T16:57:04.113Z,21.47
2023-06-08T16:59:30.269Z,21.46
2023-06-08T17:01:56.579Z,21.46
2023-06-08T17:04:22.973Z,21.46
2023-06-08T17:06:49.328Z,21.46
2023-06-08T17:09:15.487Z,21.47
2023-06-08T17:11:41.647Z,21.48
2023-06-08T17:14:07.934Z,21.47
2023-06-08T17:16:34.287Z,21.47
2023-06-08T17:19:00.508Z,21.48
2023-06-08T17:21:26.805Z,21.48
2023-06-08T17:23:52.993Z,21.50
2023-06-08T17:26:19.149Z,21.49
2023-06-08T17:28:45.317Z,21.50
2023-06-08T17:31:11.630Z,21.51
2023-06-08T17:33:37.828Z,21.50
2023-06-08T17:36:04.117Z,21.50
2023-06-08T17:38:30.275Z,21.52
2023-06-08T17:40:56.451Z,21.52
2023-06-08T17:43:22.636Z,21.52
2023-06-08T17:45:48.868Z,21.52
2023-06-08T17:48:15.084Z,21.52
2023-06-08T17:50:41.244Z,21.53
2023-06-08T17:53:07.374Z,21.52
2023-06-08T17:55:33.652Z,21.53
2023-06-08T17:58:00.118Z,21.52
2023-06-08T18:00:26.258Z,21.53
2023-06-08T18:02:52.481Z,21.54
2023-06-08T18:05:18.720Z,21.54
2023-06-08T18:07:44.862Z,21.54
2023-06-08T18:10:11.007Z,21.55
2023-06-08T18:12:37.170Z,21.55
2023-06-08T18:15:03.380Z,21.55
2023-06-08T18:17:29.670Z,21.55
2023-06-08T18:19:55.959Z,21.55
2023-06-08T18:22:22.135Z,21.55
2023-06-08T18:24:48.288Z,21.55
2023-06-08T18:27:14.678Z,21.57
2023-06-08T18:29:40.852Z,21.56
2023-06-08T18:32:07.021Z,21.55
2023-06-08T18:34:33.192Z,21.57
2023-06-08T18:36:59.329Z,21.56
2023-06-08T18:39:25.489Z,21.56
2023-06-08T18:41:51.729Z,21.56
2023-06-08T18:44:17.912Z,21.56
2023-06-08T18:46:44.121Z,21.57
2023-06-08T18:49:10.300Z,21.56
2023-06-08T18:51:36.469Z,21.57
2023-06-08T18:54:02.610Z,21.57
2023-06-08T18:56:28.805Z,21.57
2023-06-08T18:58:54.980Z,21.56
2023-06-08T19:01:21.205Z,21.56
2023-06-08T19:03:47.542Z,21.56
2023-06-08T19:06:13.808Z,21.57
2023-06-08T19:08:40.000Z,21.57
2023-06-08T19:11:06.202Z,21.57
2023-06-08T19:13:42.181Z,21.57
2023-06-08T19:16:09.083Z,21.57
2023-06-08T19:18:35.277Z,21.56
2023-06-08T19:21:02.566Z,21.58
2023-06-08T19:23:29.093Z,21.58
2023-06-08T19:25:55.286Z,21.57
2023-06-08T19:28:21.630Z,21.58
2023-06-08T19:30:47.901Z,21.57
2023-06-08T19:33:14.111Z,21.58
2023-06-08T19:35:40.367Z,21.58
2023-06-08T19:38:07.773Z,21.58
2023-06-08T19:40:33.954Z,21.58
2023-06-08T19:43:00.111Z,21.57
2023-06-08T19:45:26.410Z,21.58
2023-06-08T19:47:52.773Z,21.58
2023-06-08T19:50:19.261Z,21.57
2023-06-08T19:52:45.440Z,21.57
2023-06-08T19:55:11.620Z,21.57
2023-06-08T19:57:37.752Z,21.57
2023-06-08T20:00:04.019Z,21.58
2023-06-08T20:02:30.239Z,21.57
2023-06-08T20:04:56.431Z,21.57
2023-06-08T20:07:22.670Z,21.58
2023-06-08T20:09:48.866Z,21.57
2023-06-08T20:12:15.019Z,21.57
2023-06-08T20:14:41.278Z,21.57
2023-06-08T20:17:07.437Z,21.57
2023-06-08T20:19:33.649Z,21.56
2023-06-08T20:21:59.834Z,21.56
2023-06-08T20:24:26.031Z,21.57
2023-06-08T20:26:52.185Z,21.56
2023-06-08T20:29:18.424Z,21.56
2023-06-08T20:31:44.630Z,21.57
2023-06-08T20:34:10.848Z,21.56
2023-06-08T20:36:37.008Z,21.56
2023-06-08T20:39:03.152Z,21.55
2023-06-08T20:41:29.303Z,21.56
2023-06-08T20:43:55.464Z,21.57
2023-06-08T20:46:21.655Z,21.56
2023-06-08T20:48:47.792Z,21.56
2023-06-08T20:51:14.366Z,21.56
2023-06-08T20:53:40.798Z,21.56
2023-06-08T20:56:06.949Z,21.56
2023-06-08T20:58:33.129Z,21.55
2023-06-08T21:00:59.296Z,21.56
2023-06-08T21:03:25.460Z,21.56
2023-06-08T21:05:54.254Z,21.56
2023-06-08T21:08:20.413Z,21.56
2023-06-08T21:10:46.567Z,21.56
2023-06-08T21:13:12.738Z,21.56
2023-06-08T21:15:38.901Z,21.55
2023-06-08T21:18:05.093Z,21.55
2023-06-08T21:20:31.285Z,21.56
2023-06-08T21:22:57.447Z,21.55
2023-06-08T21:25:23.594Z,21.55
2023-06-08T21:27:49.762Z,21.54
2023-06-08T21:30:15.922Z,21.54
2023-06-08T21:32:42.271Z,21.55
2023-06-08T21:35:10.417Z,21.55
2023-06-08T21:37:36.599Z,21.55
2023-06-08T21:40:02.772Z,21.54
2023-06-08T21:42:28.932Z,21.53
2023-06-08T21:44:55.084Z,21.54
2023-06-08T21:47:21.232Z,21.53
2023-06-08T21:49:47.417Z,21.53
2023-06-08T21:52:13.549Z,21.54
2023-06-08T21:54:39.697Z,21.52
2023-06-08T21:57:05.890Z,21.53
2023-06-08T21:59:32.057Z,21.52
2023-06-08T22:01:58.351Z,21.55
2023-06-08T22:04:25.872Z,21.54
2023-06-08T22:06:52.307Z,21.53
2023-06-08T22:09:18.488Z,21.52
2023-06-08T22:11:44.666Z,21.52
2023-06-08T22:14:10.956Z,21.52
2023-06-08T22:16:37.234Z,21.52
2023-06-08T22:19:03.519Z,21.52
2023-06-08T22:21:29.649Z,21.53
2023-06-08T22:23:55.907Z,21.52
2023-06-08T22:26:22.163Z,21.52
2023-06-08T22:28:48.314Z,21.51
2023-06-08T22:31:14.492Z,21.51
2023-06-08T22:33:40.705Z,21.51
2023-06-08T22:36:06.873Z,21.53
2023-06-08T22:38:33.009Z,21.52
2023-06-08T22:40:59.151Z,21.52
2023-06-08T22:43:25.283Z,21.52
2023-06-08T22:45:51.465Z,21.52
2023-06-08T22:48:17.747Z,21.51
2023-06-08T22:50:43.895Z,21.51
2023-06-08T22:53:10.071Z,21.50
2023-06-08T22:55:36.299Z,21.50
2023-06-08T22:58:02.433Z,21.50
2023-06-08T23:00:28.568Z,21.49
2023-06-08T23:02:54.780Z,21.49
2023-06-08T23:05:20.983Z,21.50
2023-06-08T23:07:47.314Z,21.49
2023-06-08T23:10:13.574Z,21.49
2023-06-08T23:12:39.734Z,21.49
2023-06-08T23:15:06.152Z,21.49
2023-06-08T23:17:32.637Z,21.48
2023-06-08T23:19:58.787Z,21.48
2023-06-08T23:22:24.938Z,21.47
2023-06-08T23:24:51.132Z,21.47
2023-06-08T23:27:17.359Z,21.47
2023-06-08T23:29:43.529Z,21.48
2023-06-08T23:32:09.868Z,21.46
2023-06-08T23:34:36.158Z,21.45
2023-06-08T23:37:02.309Z,21.46
2023-06-08T23:39:28.465Z,21.45
2023-06-08T23:41:54.616Z,21.46
2023-06-08T23:44:20.771Z,21.45
2023-06-08T23:46:46.969Z,21.46
2023-06-08T23:49:13.176Z,21.46
2023-06-08T23:51:39.328Z,21.44
2023-06-08T23:54:05.493Z,21.45
2023-06-08T23:56:31.646Z,21.45
2023-06-08T23:58:57.875Z,21.46
